Time;durP1;ratioP1;P1;durP2;ratioP2;P2;SDS_P1;SDS_P2;PMS_P1;PMS_P2;Temp;Humidity;BMP_temperature;BMP_pressure;BME280_temperature;BME280_humidity;BME280_pressure;Samples;Min_cycle;Max_cycle;Signal;HPM_P1;HPM_P2
2023/12/03 00:02:24;;;;;;;41.30;25.10;;;;;;;;;;5022835;28;20628;-67
2023/12/03 00:04:54;;;;;;;43.07;24.07;;;;;;;;;;5022719;28;20409;-68
2023/12/03 00:07:21;;;;;;;40.40;23.53;;;;;;;;;;5022570;28;20221;-67
2023/12/03 00:09:47;;;;;;;40.63;23.17;;;;;;;;;;5022809;28;20187;-67
2023/12/03 00:12:13;;;;;;;40.17;24.00;;;;;;;;;;5040397;28;20437;-67
2023/12/03 00:14:39;;;;;;;38.43;22.83;;;;;;;;;;5040188;28;20565;-67
2023/12/03 00:17:05;;;;;;;39.70;23.87;;;;;;;;;;5023793;28;20182;-67
2023/12/03 00:19:31;;;;;;;42.50;25.20;;;;;;;;;;5040744;28;20484;-67
2023/12/03 00:21:57;;;;;;;39.60;24.10;;;;;;;;;;5022124;28;20462;-67
2023/12/03 00:24:23;;;;;;;42.30;24.87;;;;;;;;;;5036235;28;20237;-67
2023/12/03 00:26:49;;;;;;;44.10;25.13;;;;;;;;;;5037339;28;20183;-67
2023/12/03 00:29:15;;;;;;;50.73;25.87;;;;;;;;;;5019510;28;20801;-68
2023/12/03 00:31:41;;;;;;;39.93;21.67;;;;;;;;;;5036841;28;20191;-67
2023/12/03 00:34:07;;;;;;;43.40;26.07;;;;;;;;;;5020271;28;20576;-67
2023/12/03 00:36:33;;;;;;;48.67;27.37;;;;;;;;;;5038211;28;20406;-67
2023/12/03 00:38:59;;;;;;;44.80;26.13;;;;;;;;;;5019265;28;20544;-68
2023/12/03 00:41:26;;;;;;;44.40;27.03;;;;;;;;;;5018870;28;21178;-67
2023/12/03 00:43:52;;;;;;;43.63;26.60;;;;;;;;;;5036663;28;20428;-67
2023/12/03 00:46:22;;;;;;;51.83;28.77;;;;;;;;;;5062090;22;20493;-71
2023/12/03 00:48:48;;;;;;;48.93;27.70;;;;;;;;;;5038234;28;20912;-70
2023/12/03 00:51:14;;;;;;;50.17;28.73;;;;;;;;;;5020190;28;20422;-68
2023/12/03 00:53:41;;;;;;;49.73;29.13;;;;;;;;;;5020136;28;20414;-68
2023/12/03 00:56:08;;;;;;;45.97;27.27;;;;;;;;;;5019627;28;20487;-70
2023/12/03 00:58:34;;;;;;;51.53;28.83;;;;;;;;;;5038080;28;20480;-70
2023/12/03 01:01:00;;;;;;;46.63;27.17;;;;;;;;;;5038110;28;20497;-71
2023/12/03 01:03:26;;;;;;;52.43;29.87;;;;;;;;;;5020182;28;20181;-71
2023/12/03 01:05:52;;;;;;;48.13;27.87;;;;;;;;;;5019661;28;20525;-70
2023/12/03 01:08:18;;;;;;;45.27;27.73;;;;;;;;;;5019782;28;20187;-71
2023/12/03 01:10:44;;;;;;;49.53;29.67;;;;;;;;;;5037596;28;20179;-70
2023/12/03 01:13:09;;;;;;;47.97;31.23;;;;;;;;;;5038301;28;20171;-70
2023/12/03 01:15:35;;;;;;;50.07;29.37;;;;;;;;;;5020295;28;20222;-70
2023/12/03 01:18:01;;;;;;;52.20;29.63;;;;;;;;;;5037605;28;20213;-71
2023/12/03 01:20:27;;;;;;;48.53;27.33;;;;;;;;;;5019764;28;20179;-71
2023/12/03 01:22:54;;;;;;;48.70;28.30;;;;;;;;;;5019801;28;20418;-71
2023/12/03 01:25:20;;;;;;;51.13;28.43;;;;;;;;;;5037385;28;20688;-69
2023/12/03 01:27:46;;;;;;;52.87;28.83;;;;;;;;;;5019743;28;20779;-71
2023/12/03 01:30:12;;;;;;;52.07;29.60;;;;;;;;;;5037387;28;20497;-70
2023/12/03 01:32:38;;;;;;;46.93;26.27;;;;;;;;;;5018512;28;20430;-74
2023/12/03 01:35:05;;;;;;;52.30;28.60;;;;;;;;;;5035760;28;20565;-70
2023/12/03 01:37:31;;;;;;;49.70;27.87;;;;;;;;;;5036623;28;20475;-70
2023/12/03 01:39:57;;;;;;;52.30;30.67;;;;;;;;;;5037072;28;20179;-71
2023/12/03 01:42:24;;;;;;;49.23;27.67;;;;;;;;;;5018698;28;20638;-70
2023/12/03 01:44:50;;;;;;;51.13;27.50;;;;;;;;;;5036466;28;20217;-70
2023/12/03 01:47:17;;;;;;;46.17;27.20;;;;;;;;;;5018071;28;20202;-70
2023/12/03 01:49:43;;;;;;;47.70;28.00;;;;;;;;;;5035553;28;20964;-69
2023/12/03 01:52:09;;;;;;;45.13;26.70;;;;;;;;;;5036191;28;20179;-71
2023/12/03 01:54:36;;;;;;;47.40;27.40;;;;;;;;;;5036752;28;20286;-70
2023/12/03 01:57:02;;;;;;;56.87;29.17;;;;;;;;;;5018862;28;20705;-70
2023/12/03 01:59:28;;;;;;;48.83;26.67;;;;;;;;;;5018628;28;20179;-70
2023/12/03 02:01:54;;;;;;;51.30;27.97;;;;;;;;;;5036296;28;20529;-69
2023/12/03 02:04:20;;;;;;;46.63;27.90;;;;;;;;;;5036321;28;20202;-69
2023/12/03 02:06:46;;;;;;;52.70;29.03;;;;;;;;;;5018619;28;20562;-71
2023/12/03 02:09:14;;;;;;;53.87;30.47;;;;;;;;;;5036409;28;20182;-70
2023/12/03 02:11:40;;;;;;;51.10;31.40;;;;;;;;;;5036495;28;20185;-69
2023/12/03 02:14:06;;;;;;;54.80;30.83;;;;;;;;;;5037513;28;20458;-70
2023/12/03 02:16:34;;;;;;;51.53;30.17;;;;;;;;;;5036767;28;20198;-70
2023/12/03 02:19:00;;;;;;;55.80;31.80;;;;;;;;;;5018731;28;20599;-70
2023/12/03 02:21:30;;;;;;;58.30;32.10;;;;;;;;;;5036609;28;20488;-70
2023/12/03 02:23:56;;;;;;;54.47;30.50;;;;;;;;;;5036532;28;20575;-70
2023/12/03 02:26:21;;;;;;;57.77;32.57;;;;;;;;;;5018524;28;20442;-70
2023/12/03 02:28:51;;;;;;;52.43;31.47;;;;;;;;;;5018554;28;20552;-70
2023/12/03 02:31:17;;;;;;;52.30;30.90;;;;;;;;;;5037108;28;20182;-72
2023/12/03 02:33:47;;;;;;;56.30;32.87;;;;;;;;;;5036826;28;20417;-69
2023/12/03 02:36:13;;;;;;;53.00;31.73;;;;;;;;;;5036181;28;20513;-69
2023/12/03 02:38:39;;;;;;;52.60;31.73;;;;;;;;;;5036423;28;20442;-71
2023/12/03 02:41:05;;;;;;;51.83;27.87;;;;;;;;;;5036463;28;20194;-69
2023/12/03 02:43:31;;;;;;;57.13;31.50;;;;;;;;;;5037308;28;20410;-70
2023/12/03 02:45:57;;;;;;;56.80;31.37;;;;;;;;;;5036317;28;20603;-68
2023/12/03 02:48:23;;;;;;;55.40;32.20;;;;;;;;;;5036554;28;20528;-69
2023/12/03 02:50:49;;;;;;;56.73;32.30;;;;;;;;;;5017934;28;20225;-70
2023/12/03 02:53:15;;;;;;;53.53;32.60;;;;;;;;;;5036043;28;20225;-69
2023/12/03 02:55:41;;;;;;;56.10;33.60;;;;;;;;;;5036084;28;20211;-69
2023/12/03 02:58:07;;;;;;;51.17;29.57;;;;;;;;;;5035559;28;20182;-70
2023/12/03 03:00:33;;;;;;;58.80;32.37;;;;;;;;;;5036244;28;20294;-71
2023/12/03 03:02:59;;;;;;;55.53;31.33;;;;;;;;;;5036423;28;20194;-70
2023/12/03 03:05:25;;;;;;;54.90;32.53;;;;;;;;;;5017690;28;20441;-69
2023/12/03 03:07:55;;;;;;;56.50;31.13;;;;;;;;;;5018478;28;20281;-70
2023/12/03 03:10:23;;;;;;;54.23;32.67;;;;;;;;;;5036437;28;20279;-70
2023/12/03 03:12:49;;;;;;;53.50;31.80;;;;;;;;;;5018037;28;20501;-70
2023/12/03 03:15:15;;;;;;;54.70;30.70;;;;;;;;;;5018176;28;20309;-70
2023/12/03 03:17:41;;;;;;;56.00;31.77;;;;;;;;;;5035489;28;20187;-70
2023/12/03 03:20:08;;;;;;;53.60;29.93;;;;;;;;;;5036172;28;20179;-69
2023/12/03 03:22:33;;;;;;;48.17;27.87;;;;;;;;;;5018258;28;20187;-69
2023/12/03 03:25:00;;;;;;;45.97;28.83;;;;;;;;;;5035774;28;20437;-70
2023/12/03 03:27:26;;;;;;;48.23;29.73;;;;;;;;;;5036134;28;20174;-70
2023/12/03 03:29:52;;;;;;;48.10;27.13;;;;;;;;;;5035683;28;20778;-70
2023/12/03 03:32:18;;;;;;;46.33;28.10;;;;;;;;;;5035169;28;20644;-69
2023/12/03 03:34:44;;;;;;;48.37;27.57;;;;;;;;;;5017548;28;20348;-69
2023/12/03 03:37:10;;;;;;;48.70;27.00;;;;;;;;;;5035182;28;20269;-70
2023/12/03 03:39:36;;;;;;;45.43;26.37;;;;;;;;;;5035197;28;20258;-70
2023/12/03 03:42:03;;;;;;;46.67;27.27;;;;;;;;;;5035130;28;20920;-69
2023/12/03 03:44:29;;;;;;;45.57;26.13;;;;;;;;;;5035358;28;20597;-70
2023/12/03 03:46:55;;;;;;;43.80;26.27;;;;;;;;;;5035366;28;20410;-69
2023/12/03 03:49:21;;;;;;;43.63;25.47;;;;;;;;;;5016919;28;20460;-69
2023/12/03 03:51:47;;;;;;;42.73;25.10;;;;;;;;;;5035055;28;20183;-69
2023/12/03 03:54:13;;;;;;;42.23;25.03;;;;;;;;;;5035080;28;20199;-69
2023/12/03 03:56:39;;;;;;;42.90;24.23;;;;;;;;;;5017578;28;20222;-70
2023/12/03 03:59:05;;;;;;;43.27;23.63;;;;;;;;;;5039138;28;20171;-69
2023/12/03 04:01:31;;;;;;;43.13;24.10;;;;;;;;;;5020753;28;20508;-70
2023/12/03 04:03:56;;;;;;;41.63;25.20;;;;;;;;;;5021193;28;20183;-70
2023/12/03 04:06:22;;;;;;;38.83;21.43;;;;;;;;;;5038604;28;20282;-69
2023/12/03 04:08:48;;;;;;;41.23;24.37;;;;;;;;;;5037975;28;20203;-69
2023/12/03 04:11:14;;;;;;;41.93;25.50;;;;;;;;;;5038506;28;20560;-69
2023/12/03 04:13:40;;;;;;;43.63;24.03;;;;;;;;;;5038409;28;20175;-69
2023/12/03 04:16:07;;;;;;;38.87;23.27;;;;;;;;;;5020382;28;20219;-69
2023/12/03 04:18:32;;;;;;;41.30;23.37;;;;;;;;;;5038775;28;20182;-70
2023/12/03 04:20:58;;;;;;;40.87;24.60;;;;;;;;;;5020691;28;20179;-69
2023/12/03 04:23:24;;;;;;;40.23;22.40;;;;;;;;;;5038029;28;20182;-69
2023/12/03 04:25:50;;;;;;;42.43;25.10;;;;;;;;;;5038185;28;20227;-70
2023/12/03 04:28:16;;;;;;;42.93;23.80;;;;;;;;;;5038450;28;20179;-71
2023/12/03 04:30:42;;;;;;;40.63;23.40;;;;;;;;;;5020263;28;20255;-70
2023/12/03 04:33:08;;;;;;;40.23;23.60;;;;;;;;;;5020373;28;20188;-70
2023/12/03 04:35:34;;;;;;;37.07;21.77;;;;;;;;;;5020768;28;20654;-69
2023/12/03 04:38:00;;;;;;;38.37;22.13;;;;;;;;;;5021169;28;20542;-68
2023/12/03 04:40:26;;;;;;;41.23;24.03;;;;;;;;;;5038562;28;20240;-69
2023/12/03 04:42:52;;;;;;;41.00;23.47;;;;;;;;;;5020308;28;20673;-68
2023/12/03 04:45:18;;;;;;;43.23;23.63;;;;;;;;;;5019913;28;20215;-69
2023/12/03 04:47:44;;;;;;;42.77;23.17;;;;;;;;;;5038979;28;20424;-69
2023/12/03 04:50:10;;;;;;;39.00;22.57;;;;;;;;;;5038387;28;20199;-69
2023/12/03 04:52:36;;;;;;;47.27;24.03;;;;;;;;;;5037871;28;20179;-69
2023/12/03 04:55:02;;;;;;;38.60;23.47;;;;;;;;;;5037555;28;20214;-69
2023/12/03 04:57:28;;;;;;;40.77;22.87;;;;;;;;;;5037799;28;20194;-69
2023/12/03 04:59:54;;;;;;;36.80;21.43;;;;;;;;;;5038449;28;20410;-68
2023/12/03 05:02:20;;;;;;;38.97;21.87;;;;;;;;;;5038034;28;20179;-70
2023/12/03 05:04:46;;;;;;;39.83;22.53;;;;;;;;;;5020241;28;20214;-70
2023/12/03 05:07:12;;;;;;;38.43;22.20;;;;;;;;;;5036260;28;20179;-69
2023/12/03 05:09:39;;;;;;;40.43;21.57;;;;;;;;;;5017809;28;20183;-69
2023/12/03 05:12:05;;;;;;;42.87;22.90;;;;;;;;;;5019661;28;20426;-70
2023/12/03 05:14:32;;;;;;;39.70;22.00;;;;;;;;;;5038184;28;20812;-69
2023/12/03 05:16:58;;;;;;;36.07;22.90;;;;;;;;;;5019919;28;20179;-69
2023/12/03 05:19:24;;;;;;;38.27;22.63;;;;;;;;;;5019405;28;20494;-70
2023/12/03 05:21:50;;;;;;;37.47;20.70;;;;;;;;;;5037395;28;20183;-69
2023/12/03 05:24:16;;;;;;;38.23;21.53;;;;;;;;;;5037352;28;20179;-69
2023/12/03 05:26:42;;;;;;;39.20;21.57;;;;;;;;;;5037331;28;20239;-69
2023/12/03 05:29:08;;;;;;;43.50;22.80;;;;;;;;;;5037438;28;20190;-69
2023/12/03 05:31:34;;;;;;;41.63;24.10;;;;;;;;;;5036983;28;20535;-68
2023/12/03 05:34:00;;;;;;;40.93;24.33;;;;;;;;;;5036775;28;20179;-70
2023/12/03 05:36:26;;;;;;;40.60;22.77;;;;;;;;;;5036759;28;20199;-70
2023/12/03 05:38:53;;;;;;;43.53;23.57;;;;;;;;;;5019785;28;20273;-70
2023/12/03 05:41:19;;;;;;;45.20;24.83;;;;;;;;;;5037643;28;20175;-69
2023/12/03 05:43:45;;;;;;;44.00;25.70;;;;;;;;;;5037246;28;20258;-70
2023/12/03 05:46:11;;;;;;;49.73;26.87;;;;;;;;;;5019594;28;20496;-70
2023/12/03 05:48:37;;;;;;;47.30;26.13;;;;;;;;;;5037571;28;20187;-70
2023/12/03 05:51:08;;;;;;;41.67;24.53;;;;;;;;;;5037247;28;20210;-70
2023/12/03 05:53:34;;;;;;;42.60;25.17;;;;;;;;;;5037281;28;20171;-69
2023/12/03 05:56:00;;;;;;;45.80;25.43;;;;;;;;;;5036706;28;20222;-70
2023/12/03 05:58:25;;;;;;;44.00;25.27;;;;;;;;;;5019130;28;20183;-70
2023/12/03 06:00:51;;;;;;;45.10;25.97;;;;;;;;;;5019498;28;20190;-70
2023/12/03 06:03:17;;;;;;;39.53;23.10;;;;;;;;;;5036983;28;20399;-71
2023/12/03 06:05:43;;;;;;;38.63;23.40;;;;;;;;;;5018499;28;20202;-69
2023/12/03 06:08:09;;;;;;;38.47;22.90;;;;;;;;;;5036416;28;20347;-69
2023/12/03 06:10:35;;;;;;;39.87;22.57;;;;;;;;;;5019667;28;20179;-66
2023/12/03 06:13:01;;;;;;;36.20;22.37;;;;;;;;;;5036818;28;20199;-66
2023/12/03 06:15:27;;;;;;;36.43;21.93;;;;;;;;;;5018142;28;20215;-66
2023/12/03 06:17:53;;;;;;;33.77;20.90;;;;;;;;;;5018067;28;20269;-66
2023/12/03 06:20:19;;;;;;;36.67;20.63;;;;;;;;;;5017258;28;20450;-67
2023/12/03 06:22:45;;;;;;;32.60;19.60;;;;;;;;;;5035714;28;20190;-67
2023/12/03 06:25:11;;;;;;;37.47;19.90;;;;;;;;;;5017825;28;20245;-65
2023/12/03 06:27:37;;;;;;;32.47;20.97;;;;;;;;;;5018190;28;20187;-66
2023/12/03 06:30:03;;;;;;;35.90;19.73;;;;;;;;;;5019030;28;20183;-67
2023/12/03 06:32:29;;;;;;;31.57;18.53;;;;;;;;;;5036098;28;20888;-67
2023/12/03 06:34:55;;;;;;;31.93;18.33;;;;;;;;;;5017302;28;20854;-67
2023/12/03 06:37:21;;;;;;;33.53;18.53;;;;;;;;;;5017355;28;20414;-67
2023/12/03 06:39:47;;;;;;;32.97;19.67;;;;;;;;;;5035377;28;20175;-66
2023/12/03 06:42:13;;;;;;;33.20;19.40;;;;;;;;;;5035637;28;20668;-66
2023/12/03 06:44:39;;;;;;;34.50;18.93;;;;;;;;;;5016965;28;20888;-66
2023/12/03 06:47:06;;;;;;;30.83;17.83;;;;;;;;;;5017357;28;20603;-67
2023/12/03 06:49:32;;;;;;;32.37;19.57;;;;;;;;;;5034261;28;20232;-67
2023/12/03 06:51:58;;;;;;;36.37;17.80;;;;;;;;;;5017077;28;20418;-67
2023/12/03 06:54:24;;;;;;;32.87;19.03;;;;;;;;;;5035454;28;20684;-67
2023/12/03 06:56:50;;;;;;;31.13;18.17;;;;;;;;;;5016889;28;20600;-67
2023/12/03 06:59:16;;;;;;;34.87;19.63;;;;;;;;;;5017555;28;20266;-67
2023/12/03 07:01:42;;;;;;;33.70;19.20;;;;;;;;;;5017249;28;20561;-67
2023/12/03 07:04:08;;;;;;;33.33;18.70;;;;;;;;;;5036282;28;20205;-68
2023/12/03 07:06:34;;;;;;;34.50;18.60;;;;;;;;;;5038976;28;20199;-67
2023/12/03 07:09:00;;;;;;;28.93;16.33;;;;;;;;;;5043661;28;20171;-66
2023/12/03 07:11:28;;;;;;;28.17;18.30;;;;;;;;;;5027342;28;20183;-65
2023/12/03 07:13:54;;;;;;;33.80;19.43;;;;;;;;;;5025230;28;20186;-66
2023/12/03 07:16:20;;;;;;;31.80;18.53;;;;;;;;;;5026180;28;20434;-67
2023/12/03 07:18:46;;;;;;;33.77;18.53;;;;;;;;;;5025042;28;20185;-67
2023/12/03 07:21:12;;;;;;;31.97;18.90;;;;;;;;;;5024278;28;20422;-67
2023/12/03 07:23:38;;;;;;;33.77;19.37;;;;;;;;;;5035557;28;20483;-67
2023/12/03 07:26:11;;;;;;;30.00;17.93;;;;;;;;;;5018005;28;20199;-67
2023/12/03 07:28:37;;;;;;;34.33;19.23;;;;;;;;;;5017369;28;20183;-67
2023/12/03 07:31:06;;;;;;;34.53;19.23;;;;;;;;;;5017114;28;20421;-67
2023/12/03 07:33:32;;;;;;;32.33;18.93;;;;;;;;;;5038339;28;20684;-67
2023/12/03 07:35:58;;;;;;;27.67;15.53;;;;;;;;;;5066985;22;20623;-71
2023/12/03 07:38:24;;;;;;;31.27;18.87;;;;;;;;;;5044921;28;20406;-71
2023/12/03 07:40:51;;;;;;;33.57;19.73;;;;;;;;;;5022966;28;20476;-70
2023/12/03 07:43:17;;;;;;;31.10;18.63;;;;;;;;;;5020070;28;20621;-71
2023/12/03 07:45:43;;;;;;;32.83;19.13;;;;;;;;;;5037357;28;20422;-71
2023/12/03 07:48:09;;;;;;;30.47;18.23;;;;;;;;;;5038059;28;20186;-71
2023/12/03 07:50:34;;;;;;;32.27;18.93;;;;;;;;;;5038414;28;20262;-71
2023/12/03 07:53:00;;;;;;;30.27;17.83;;;;;;;;;;5022799;28;20191;-71
2023/12/03 07:55:26;;;;;;;30.80;19.13;;;;;;;;;;5040526;28;20226;-71
2023/12/03 07:57:53;;;;;;;28.20;17.70;;;;;;;;;;5020787;28;20286;-71
2023/12/03 08:00:19;;;;;;;32.23;17.83;;;;;;;;;;5037635;28;20489;-71
2023/12/03 08:02:45;;;;;;;27.03;15.53;;;;;;;;;;5037589;28;20179;-71
2023/12/03 08:05:12;;;;;;;27.57;16.87;;;;;;;;;;5036853;28;20927;-71
2023/12/03 08:07:37;;;;;;;32.73;18.23;;;;;;;;;;5036848;28;20237;-69
2023/12/03 08:10:03;;;;;;;31.33;17.93;;;;;;;;;;5019356;28;20417;-71
2023/12/03 08:12:29;;;;;;;31.20;17.00;;;;;;;;;;5019547;28;20179;-71
2023/12/03 08:14:55;;;;;;;28.67;17.73;;;;;;;;;;5037057;28;20469;-71
2023/12/03 08:17:21;;;;;;;28.27;17.07;;;;;;;;;;5019288;28;20410;-71
2023/12/03 08:19:47;;;;;;;31.73;17.80;;;;;;;;;;5037907;28;20543;-71
2023/12/03 08:22:13;;;;;;;28.43;17.20;;;;;;;;;;5036695;28;20178;-70
2023/12/03 08:24:39;;;;;;;28.03;15.83;;;;;;;;;;5018967;28;20234;-71
2023/12/03 08:27:05;;;;;;;30.03;17.93;;;;;;;;;;5037200;28;20676;-70
2023/12/03 08:29:32;;;;;;;29.83;17.53;;;;;;;;;;5019617;28;20179;-70
2023/12/03 08:31:58;;;;;;;31.23;16.90;;;;;;;;;;5036640;28;20711;-71
2023/12/03 08:34:25;;;;;;;26.03;15.93;;;;;;;;;;5036444;28;20465;-71
2023/12/03 08:36:51;;;;;;;24.47;15.67;;;;;;;;;;5036426;28;20234;-70
2023/12/03 08:39:17;;;;;;;28.23;16.93;;;;;;;;;;5036515;28;20418;-70
2023/12/03 08:41:43;;;;;;;24.13;15.60;;;;;;;;;;5036367;28;20190;-70
2023/12/03 08:44:09;;;;;;;25.27;15.27;;;;;;;;;;5017116;28;20183;-70
2023/12/03 08:46:34;;;;;;;25.30;16.70;;;;;;;;;;5018353;28;20236;-71
2023/12/03 08:49:00;;;;;;;22.87;15.40;;;;;;;;;;5036179;28;20258;-70
2023/12/03 08:51:26;;;;;;;34.70;21.80;;;;;;;;;;5036312;28;20186;-70
2023/12/03 08:53:52;;;;;;;22.53;14.87;;;;;;;;;;5035658;28;20661;-71
2023/12/03 08:56:18;;;;;;;50.03;28.63;;;;;;;;;;5017868;28;20685;-70
2023/12/03 08:58:44;;;;;;;36.90;20.27;;;;;;;;;;5018359;28;20266;-70
2023/12/03 09:01:10;;;;;;;105.80;53.23;;;;;;;;;;5035967;28;20179;-70
2023/12/03 09:03:40;;;;;;;92.70;48.77;;;;;;;;;;5018046;28;20269;-70
2023/12/03 09:06:06;;;;;;;145.07;73.13;;;;;;;;;;5017785;28;20514;-70
2023/12/03 09:08:32;;;;;;;28.00;17.00;;;;;;;;;;5035795;28;20974;-71
2023/12/03 09:10:59;;;;;;;32.23;20.40;;;;;;;;;;5018964;28;20453;-70
2023/12/03 09:13:25;;;;;;;55.77;35.83;;;;;;;;;;5035662;28;20417;-70
2023/12/03 09:15:51;;;;;;;41.63;25.67;;;;;;;;;;5035525;28;20552;-71
2023/12/03 09:18:17;;;;;;;46.03;27.40;;;;;;;;;;5021758;28;20230;-71
2023/12/03 09:20:43;;;;;;;68.43;38.43;;;;;;;;;;5039049;28;20893;-71
2023/12/03 09:23:09;;;;;;;50.90;29.90;;;;;;;;;;5042577;28;20176;-71
2023/12/03 09:25:35;;;;;;;34.47;21.27;;;;;;;;;;5056900;28;20183;-71
2023/12/03 09:28:01;;;;;;;83.60;45.70;;;;;;;;;;5039419;28;20190;-70
2023/12/03 09:30:27;;;;;;;32.57;17.77;;;;;;;;;;5041182;28;20202;-70
2023/12/03 09:32:53;;;;;;;26.53;17.27;;;;;;;;;;5018998;28;20210;-68
2023/12/03 09:35:20;;;;;;;24.23;16.00;;;;;;;;;;5018878;28;20597;-70
2023/12/03 09:37:46;;;;;;;70.47;43.23;;;;;;;;;;5037413;28;20413;-70
2023/12/03 09:40:12;;;;;;;46.77;29.90;;;;;;;;;;5036492;28;20406;-69
2023/12/03 09:42:40;;;;;;;24.43;14.27;;;;;;;;;;5018647;28;20418;-70
2023/12/03 09:45:09;;;;;;;33.90;21.13;;;;;;;;;;5035899;28;20448;-69
2023/12/03 09:47:36;;;;;;;25.57;16.17;;;;;;;;;;5036096;28;20417;-70
2023/12/03 09:50:04;;;;;;;28.70;15.37;;;;;;;;;;5017779;28;20460;-69
2023/12/03 09:52:31;;;;;;;24.10;14.97;;;;;;;;;;5035201;28;20414;-70
2023/12/03 09:55:00;;;;;;;25.33;15.60;;;;;;;;;;5034818;28;20215;-70
2023/12/03 09:57:29;;;;;;;20.23;13.50;;;;;;;;;;5018725;28;20422;-70
2023/12/03 10:00:00;;;;;;;22.43;13.90;;;;;;;;;;5037433;28;20403;-70
2023/12/03 10:02:28;;;;;;;21.60;13.70;;;;;;;;;;5019525;28;20179;-70
2023/12/03 10:04:54;;;;;;;22.67;14.47;;;;;;;;;;5036597;28;20426;-71
2023/12/03 10:07:22;;;;;;;25.17;15.90;;;;;;;;;;5036656;28;20206;-70
2023/12/03 10:09:49;;;;;;;24.50;14.83;;;;;;;;;;5037802;28;20179;-70
2023/12/03 10:12:17;;;;;;;20.57;14.37;;;;;;;;;;5018915;28;20285;-70
2023/12/03 10:14:45;;;;;;;19.50;12.90;;;;;;;;;;5017334;28;20661;-70
2023/12/03 10:17:18;;;;;;;20.13;12.00;;;;;;;;;;5017420;28;20744;-70
2023/12/03 10:19:45;;;;;;;23.37;14.03;;;;;;;;;;5034837;28;20610;-73
2023/12/03 10:22:12;;;;;;;21.17;13.30;;;;;;;;;;5016657;28;20181;-73
2023/12/03 10:24:50;;;;;;;22.20;14.77;;;;;;;;;;5016648;28;20238;-71
2023/12/03 10:27:16;;;;;;;27.03;18.10;;;;;;;;;;5016817;28;20183;-73
2023/12/03 10:29:42;;;;;;;20.47;12.80;;;;;;;;;;5040193;28;20207;-70
2023/12/03 10:32:11;;;;;;;18.63;11.93;;;;;;;;;;5041556;28;20191;-70
2023/12/03 10:34:43;;;;;;;20.40;12.97;;;;;;;;;;5041100;28;20218;-70
2023/12/03 10:37:09;;;;;;;19.20;12.53;;;;;;;;;;5040878;28;20270;-70
2023/12/03 10:39:37;;;;;;;19.77;13.03;;;;;;;;;;5039964;28;20265;-70
2023/12/03 10:42:03;;;;;;;19.13;12.97;;;;;;;;;;5020287;28;20273;-71
2023/12/03 10:44:30;;;;;;;24.53;14.50;;;;;;;;;;5034982;28;20194;-71
2023/12/03 10:46:57;;;;;;;31.67;22.03;;;;;;;;;;5034851;28;20179;-74
2023/12/03 10:49:24;;;;;;;34.23;24.43;;;;;;;;;;5034187;28;20536;-73
2023/12/03 10:51:55;;;;;;;25.00;14.53;;;;;;;;;;5034163;28;20574;-74
2023/12/03 10:54:21;;;;;;;21.67;12.67;;;;;;;;;;5017096;28;20214;-73
2023/12/03 10:56:49;;;;;;;34.10;20.57;;;;;;;;;;5034462;28;20237;-74
2023/12/03 10:59:16;;;;;;;20.60;11.97;;;;;;;;;;5016490;28;20183;-73
2023/12/03 11:01:47;;;;;;;20.20;12.30;;;;;;;;;;5034372;28;20203;-69
2023/12/03 11:04:29;;;;;;;19.13;12.57;;;;;;;;;;5017242;28;20213;-69
2023/12/03 11:06:55;;;;;;;18.87;12.47;;;;;;;;;;5034421;28;20206;-70
2023/12/03 11:09:21;;;;;;;21.00;13.07;;;;;;;;;;5016799;28;20186;-69
2023/12/03 11:11:48;;;;;;;19.70;12.60;;;;;;;;;;5035878;28;20175;-70
2023/12/03 11:14:15;;;;;;;20.43;13.30;;;;;;;;;;5034443;28;20186;-70
2023/12/03 11:16:51;;;;;;;20.70;12.90;;;;;;;;;;5034252;28;20168;-70
2023/12/03 11:19:18;;;;;;;20.40;13.07;;;;;;;;;;5016014;28;20168;-70
2023/12/03 11:22:03;;;;;;;21.57;13.40;;;;;;;;;;5033827;28;20175;-70
2023/12/03 11:24:47;;;;;;;22.67;13.97;;;;;;;;;;5034172;28;20560;-70
2023/12/03 11:27:13;;;;;;;21.33;12.57;;;;;;;;;;5034160;28;20625;-70
2023/12/03 11:29:48;;;;;;;19.93;14.00;;;;;;;;;;5034341;28;20187;-70
2023/12/03 11:32:14;;;;;;;20.77;13.67;;;;;;;;;;5033994;28;20260;-70
2023/12/03 11:34:39;;;;;;;19.97;12.83;;;;;;;;;;5033698;28;20815;-69
2023/12/03 11:37:08;;;;;;;21.57;12.20;;;;;;;;;;5018101;28;20176;-70
2023/12/03 11:39:37;;;;;;;20.83;13.53;;;;;;;;;;5035815;28;20175;-70
2023/12/03 11:42:06;;;;;;;20.23;12.67;;;;;;;;;;5016570;28;20237;-70
2023/12/03 11:44:32;;;;;;;34.90;18.57;;;;;;;;;;5034193;28;20195;-70
2023/12/03 11:47:02;;;;;;;23.03;13.77;;;;;;;;;;5016274;28;20179;-68
2023/12/03 11:49:29;;;;;;;21.17;13.20;;;;;;;;;;5034404;28;20258;-70
2023/12/03 11:51:55;;;;;;;23.27;12.57;;;;;;;;;;5034970;28;20186;-70
2023/12/03 11:54:24;;;;;;;24.47;13.60;;;;;;;;;;5034218;28;20203;-70
2023/12/03 11:56:50;;;;;;;18.10;11.67;;;;;;;;;;5034209;28;20266;-70
2023/12/03 11:59:16;;;;;;;18.90;12.27;;;;;;;;;;5034188;28;20186;-70
2023/12/03 12:01:42;;;;;;;20.80;13.37;;;;;;;;;;5034162;28;20213;-70
2023/12/03 12:04:08;;;;;;;21.37;13.40;;;;;;;;;;5034375;28;20179;-70
2023/12/03 12:06:34;;;;;;;22.07;13.60;;;;;;;;;;5018454;28;20179;-70
2023/12/03 12:09:05;;;;;;;19.83;11.80;;;;;;;;;;5034108;28;20714;-70
2023/12/03 12:11:31;;;;;;;18.23;12.63;;;;;;;;;;5016575;28;20254;-71
2023/12/03 12:13:57;;;;;;;21.33;13.00;;;;;;;;;;5016005;28;20261;-71
2023/12/03 12:16:23;;;;;;;22.87;14.17;;;;;;;;;;5033723;28;20207;-71
2023/12/03 12:18:49;;;;;;;23.70;14.27;;;;;;;;;;5035779;28;20522;-70
2023/12/03 12:21:15;;;;;;;31.93;18.90;;;;;;;;;;5019173;28;20214;-70
2023/12/03 12:23:43;;;;;;;23.83;14.43;;;;;;;;;;5036792;28;20176;-69
2023/12/03 12:26:10;;;;;;;24.20;14.77;;;;;;;;;;5028373;28;20203;-70
2023/12/03 12:28:36;;;;;;;25.00;16.60;;;;;;;;;;5044938;28;20190;-69
2023/12/03 12:31:02;;;;;;;22.67;15.97;;;;;;;;;;5027207;28;20244;-70
2023/12/03 12:33:28;;;;;;;25.77;14.30;;;;;;;;;;5039437;28;20182;-69
2023/12/03 12:35:59;;;;;;;26.20;17.80;;;;;;;;;;5031743;28;20310;-71
2023/12/03 12:38:25;;;;;;;26.30;16.77;;;;;;;;;;5022601;28;20171;-70
2023/12/03 12:40:52;;;;;;;25.97;17.20;;;;;;;;;;5020426;28;20233;-70
2023/12/03 12:43:21;;;;;;;21.33;14.70;;;;;;;;;;5037826;28;20186;-70
2023/12/03 12:45:47;;;;;;;21.80;13.87;;;;;;;;;;5037443;28;20296;-69
2023/12/03 12:48:26;;;;;;;22.40;14.67;;;;;;;;;;5038289;28;20556;-70
2023/12/03 12:50:52;;;;;;;19.57;12.40;;;;;;;;;;5037495;28;20551;-70
2023/12/03 12:53:19;;;;;;;21.87;13.33;;;;;;;;;;5019338;28;20195;-70
2023/12/03 12:55:44;;;;;;;25.93;14.47;;;;;;;;;;5036680;28;20222;-70
2023/12/03 12:58:10;;;;;;;20.23;13.87;;;;;;;;;;5037028;28;20179;-69
2023/12/03 13:00:37;;;;;;;20.27;13.80;;;;;;;;;;5036993;28;20175;-69
2023/12/03 13:03:03;;;;;;;19.57;12.43;;;;;;;;;;5018924;28;20195;-69
2023/12/03 13:05:29;;;;;;;26.60;14.17;;;;;;;;;;5036798;28;20196;-69
2023/12/03 13:07:55;;;;;;;23.17;14.93;;;;;;;;;;5018693;28;20193;-70
2023/12/03 13:10:22;;;;;;;23.30;13.90;;;;;;;;;;5037689;28;20225;-69
2023/12/03 13:12:49;;;;;;;24.07;14.40;;;;;;;;;;5036800;28;20176;-69
2023/12/03 13:15:17;;;;;;;23.10;14.37;;;;;;;;;;5018371;28;20220;-69
2023/12/03 13:17:46;;;;;;;23.10;13.77;;;;;;;;;;5036910;28;20176;-68
2023/12/03 13:20:12;;;;;;;25.67;15.97;;;;;;;;;;5036326;28;20245;-69
2023/12/03 13:22:39;;;;;;;30.93;19.83;;;;;;;;;;5037142;28;20175;-70
2023/12/03 13:25:05;;;;;;;23.10;15.87;;;;;;;;;;5020375;28;20206;-70
2023/12/03 13:27:31;;;;;;;23.53;15.73;;;;;;;;;;5037793;28;20175;-69
2023/12/03 13:29:57;;;;;;;25.70;14.37;;;;;;;;;;5035894;28;20194;-69
2023/12/03 13:32:23;;;;;;;26.83;15.33;;;;;;;;;;5036813;28;20191;-68
2023/12/03 13:34:49;;;;;;;22.53;14.97;;;;;;;;;;5035882;28;20269;-69
2023/12/03 13:37:15;;;;;;;22.80;14.57;;;;;;;;;;5035797;28;20190;-69
2023/12/03 13:39:41;;;;;;;25.80;15.80;;;;;;;;;;5035678;28;20181;-69
2023/12/03 13:42:07;;;;;;;23.37;14.60;;;;;;;;;;5035586;28;20179;-69
2023/12/03 13:44:33;;;;;;;26.67;14.40;;;;;;;;;;5036379;28;20282;-69
2023/12/03 13:46:59;;;;;;;26.07;14.13;;;;;;;;;;5036404;28;20217;-69
2023/12/03 13:49:25;;;;;;;26.33;15.70;;;;;;;;;;5018800;28;20214;-70
2023/12/03 13:51:51;;;;;;;24.10;14.87;;;;;;;;;;5057416;22;20231;-70
2023/12/03 13:54:17;;;;;;;24.03;15.37;;;;;;;;;;5037287;28;20539;-70
2023/12/03 13:56:43;;;;;;;24.50;15.47;;;;;;;;;;5036844;28;20179;-70
2023/12/03 13:59:10;;;;;;;21.57;14.63;;;;;;;;;;5037425;28;20179;-70
2023/12/03 14:01:36;;;;;;;23.43;15.17;;;;;;;;;;5036976;28;20665;-70
2023/12/03 14:04:02;;;;;;;23.47;14.33;;;;;;;;;;5045095;28;20162;-70
2023/12/03 14:06:29;;;;;;;24.57;14.30;;;;;;;;;;5049559;28;20186;-70
2023/12/03 14:08:55;;;;;;;24.07;15.73;;;;;;;;;;5049052;28;20247;-70
2023/12/03 14:11:20;;;;;;;24.30;14.53;;;;;;;;;;5048061;28;20203;-70
2023/12/03 14:13:47;;;;;;;25.37;14.93;;;;;;;;;;5040112;28;20202;-70